Time;durP1;ratioP1;P1;durP2;ratioP2;P2;SDS_P1;SDS_P2;PMS_P1;PMS_P2;Temp;Humidity;BMP_temperature;BMP_pressure;BME280_temperature;BME280_humidity;BME280_pressure;Samples;Min_cycle;Max_cycle;Signal;HPM_P1;HPM_P2
2021/12/11 00:00:39;;;;;;;11.63;6.82;;;;;;;;;;4932288;29;20414;-59
2021/12/11 00:03:05;;;;;;;9.50;6.63;;;;;;;;;;4930639;29;20446;-61
2021/12/11 00:05:33;;;;;;;12.95;6.63;;;;;;;;;;4929748;29;20478;-61
2021/12/11 00:08:00;;;;;;;12.32;7.05;;;;;;;;;;4929090;29;20458;-59
2021/12/11 00:10:31;;;;;;;11.85;7.10;;;;;;;;;;4930104;29;20126;-62
2021/12/11 00:13:00;;;;;;;9.57;6.43;;;;;;;;;;4933399;29;20035;-60
2021/12/11 00:15:31;;;;;;;12.75;7.28;;;;;;;;;;4932887;29;20040;-60
2021/12/11 00:18:05;;;;;;;13.68;7.18;;;;;;;;;;4929603;29;20059;-61
2021/12/11 00:20:33;;;;;;;10.73;6.45;;;;;;;;;;4931579;29;20114;-61
2021/12/11 00:23:00;;;;;;;10.77;6.70;;;;;;;;;;4930948;29;20035;-59
2021/12/11 00:25:26;;;;;;;14.43;7.93;;;;;;;;;;4932597;29;20129;-61
2021/12/11 00:27:59;;;;;;;10.35;7.13;;;;;;;;;;4932278;29;20051;-60
2021/12/11 00:30:27;;;;;;;11.60;7.35;;;;;;;;;;4931090;29;20044;-60
2021/12/11 00:32:59;;;;;;;10.30;7.35;;;;;;;;;;4925319;29;20043;-60
2021/12/11 00:35:25;;;;;;;11.50;7.20;;;;;;;;;;4920392;29;20047;-61
2021/12/11 00:37:51;;;;;;;12.27;7.38;;;;;;;;;;4925797;29;20047;-60
2021/12/11 00:40:17;;;;;;;12.20;7.25;;;;;;;;;;4929531;29;20047;-60
2021/12/11 00:42:49;;;;;;;11.48;7.82;;;;;;;;;;4928338;29;20114;-61
2021/12/11 00:45:18;;;;;;;13.35;7.05;;;;;;;;;;4931779;29;20179;-61
2021/12/11 00:47:47;;;;;;;9.80;6.57;;;;;;;;;;4932319;29;20044;-61
2021/12/11 00:50:14;;;;;;;10.52;7.25;;;;;;;;;;4924667;29;20055;-61
2021/12/11 00:52:43;;;;;;;10.63;7.30;;;;;;;;;;4927344;29;20048;-61
2021/12/11 00:55:21;;;;;;;13.07;7.45;;;;;;;;;;4925763;29;20472;-60
2021/12/11 00:57:48;;;;;;;14.07;7.07;;;;;;;;;;4925724;29;20414;-61
2021/12/11 01:00:16;;;;;;;11.90;7.32;;;;;;;;;;4925507;29;20099;-61
2021/12/11 01:02:44;;;;;;;10.43;7.15;;;;;;;;;;4926661;29;20055;-61
2021/12/11 01:05:10;;;;;;;11.80;7.15;;;;;;;;;;4924530;29;20051;-61
2021/12/11 01:07:37;;;;;;;11.75;7.43;;;;;;;;;;4926021;29;20389;-60
2021/12/11 01:10:09;;;;;;;13.18;7.95;;;;;;;;;;4928072;29;20130;-59
2021/12/11 01:12:49;;;;;;;9.80;7.07;;;;;;;;;;4926923;29;20126;-59
2021/12/11 01:15:25;;;;;;;12.55;7.47;;;;;;;;;;4925189;29;20055;-61
2021/12/11 01:18:21;;;;;;;12.40;7.18;;;;;;;;;;4923157;29;20047;-61
2021/12/11 01:20:57;;;;;;;11.43;7.43;;;;;;;;;;4930306;29;20052;-60
2021/12/11 01:23:44;;;;;;;12.38;7.65;;;;;;;;;;4930476;29;20048;-61
2021/12/11 01:26:12;;;;;;;14.50;7.30;;;;;;;;;;4929201;29;20047;-60
2021/12/11 01:28:38;;;;;;;10.95;7.25;;;;;;;;;;4928030;29;20530;-60
2021/12/11 01:31:06;;;;;;;13.77;7.43;;;;;;;;;;4929917;29;20044;-61
2021/12/11 01:33:33;;;;;;;11.60;7.63;;;;;;;;;;4930798;29;20039;-59
2021/12/11 01:35:59;;;;;;;13.32;8.55;;;;;;;;;;4929940;29;20743;-59
2021/12/11 01:38:27;;;;;;;12.77;8.15;;;;;;;;;;4928884;29;20042;-61
2021/12/11 01:41:01;;;;;;;14.65;9.07;;;;;;;;;;4930142;29;20083;-59
2021/12/11 01:43:28;;;;;;;13.70;8.68;;;;;;;;;;4929524;29;20047;-61
2021/12/11 01:45:55;;;;;;;15.77;9.27;;;;;;;;;;4930612;29;20131;-60
2021/12/11 01:48:25;;;;;;;13.45;9.15;;;;;;;;;;4928523;29;20766;-60
2021/12/11 01:50:54;;;;;;;16.02;9.75;;;;;;;;;;4933593;29;20109;-60
2021/12/11 01:53:23;;;;;;;15.63;9.13;;;;;;;;;;4935942;29;20040;-61
2021/12/11 01:55:49;;;;;;;12.55;7.90;;;;;;;;;;4931038;29;20066;-60
2021/12/11 01:58:24;;;;;;;11.68;7.38;;;;;;;;;;4928899;29;20506;-61
2021/12/11 02:00:57;;;;;;;12.48;7.47;;;;;;;;;;4928641;29;20957;-61
2021/12/11 02:03:26;;;;;;;11.50;7.43;;;;;;;;;;4927474;29;20502;-60
2021/12/11 02:05:52;;;;;;;14.60;8.27;;;;;;;;;;4928959;29;20050;-60
2021/12/11 02:08:20;;;;;;;14.43;8.20;;;;;;;;;;4943095;29;20067;-60
2021/12/11 02:10:57;;;;;;;18.17;8.82;;;;;;;;;;4928224;29;20047;-61
2021/12/11 02:13:37;;;;;;;16.85;9.52;;;;;;;;;;4931977;29;20042;-60
2021/12/11 02:16:04;;;;;;;14.98;8.45;;;;;;;;;;4929949;29;20415;-60
2021/12/11 02:18:36;;;;;;;13.15;8.32;;;;;;;;;;4934909;29;20040;-60
2021/12/11 02:21:02;;;;;;;17.57;9.00;;;;;;;;;;4934053;29;20104;-61
2021/12/11 02:23:28;;;;;;;14.15;9.13;;;;;;;;;;4932338;29;20368;-61
2021/12/11 02:25:56;;;;;;;13.25;8.25;;;;;;;;;;4934740;29;20044;-60
2021/12/11 02:28:25;;;;;;;16.85;8.98;;;;;;;;;;4934735;29;20234;-59
2021/12/11 02:31:04;;;;;;;14.30;8.82;;;;;;;;;;4929864;29;20501;-58
2021/12/11 02:33:36;;;;;;;15.43;8.73;;;;;;;;;;4929379;29;20046;-60
2021/12/11 02:36:10;;;;;;;14.35;8.20;;;;;;;;;;4929955;29;20035;-61
2021/12/11 02:38:49;;;;;;;14.68;8.38;;;;;;;;;;4926343;29;20513;-60
2021/12/11 02:41:27;;;;;;;13.63;8.13;;;;;;;;;;4929484;29;20055;-59
2021/12/11 02:43:59;;;;;;;15.65;8.82;;;;;;;;;;4932382;29;20051;-61
2021/12/11 02:46:27;;;;;;;13.73;8.13;;;;;;;;;;4932283;29;20422;-60
2021/12/11 02:48:57;;;;;;;13.18;8.25;;;;;;;;;;4932918;29;20042;-61
2021/12/11 02:51:41;;;;;;;16.80;8.95;;;;;;;;;;4934004;29;20040;-61
2021/12/11 02:54:12;;;;;;;15.23;8.00;;;;;;;;;;4932563;29;20048;-61
2021/12/11 02:56:43;;;;;;;14.45;8.85;;;;;;;;;;4934894;29;20134;-61
2021/12/11 02:59:13;;;;;;;13.30;7.70;;;;;;;;;;4933733;29;20050;-60
2021/12/11 03:01:45;;;;;;;15.80;8.32;;;;;;;;;;4932171;29;20047;-60
2021/12/11 03:04:30;;;;;;;15.00;8.27;;;;;;;;;;4929003;29;20086;-60
2021/12/11 03:06:57;;;;;;;13.73;8.30;;;;;;;;;;4932073;29;20051;-60
2021/12/11 03:09:25;;;;;;;14.80;8.57;;;;;;;;;;4934636;29;20054;-59
2021/12/11 03:11:53;;;;;;;20.55;10.13;;;;;;;;;;4933313;29;20050;-61
2021/12/11 03:14:19;;;;;;;15.95;8.18;;;;;;;;;;4932951;29;20055;-61
2021/12/11 03:16:48;;;;;;;13.98;8.48;;;;;;;;;;4934591;29;20454;-60
2021/12/11 03:19:15;;;;;;;15.25;8.50;;;;;;;;;;4933977;29;20047;-59
2021/12/11 03:21:42;;;;;;;13.55;8.27;;;;;;;;;;4932983;29;20122;-61
2021/12/11 03:24:09;;;;;;;12.50;8.48;;;;;;;;;;4934054;29;20047;-60
2021/12/11 03:26:36;;;;;;;13.13;8.63;;;;;;;;;;4932871;29;20061;-60
2021/12/11 03:29:02;;;;;;;13.23;7.68;;;;;;;;;;4933740;29;20046;-60
2021/12/11 03:31:28;;;;;;;13.55;8.48;;;;;;;;;;4932365;29;20387;-60
2021/12/11 03:33:57;;;;;;;14.75;8.95;;;;;;;;;;4932782;29;20401;-60
2021/12/11 03:36:24;;;;;;;11.52;7.43;;;;;;;;;;4932588;29;20036;-60
2021/12/11 03:38:56;;;;;;;12.57;7.25;;;;;;;;;;4933824;29;20040;-60
2021/12/11 03:41:22;;;;;;;13.25;7.70;;;;;;;;;;4931165;29;20047;-61
2021/12/11 03:43:49;;;;;;;12.07;7.78;;;;;;;;;;4933066;29;20046;-60
2021/12/11 03:46:15;;;;;;;12.45;8.32;;;;;;;;;;4932539;29;20203;-60
2021/12/11 03:48:44;;;;;;;13.88;7.65;;;;;;;;;;4927513;29;20040;-60
2021/12/11 03:51:11;;;;;;;14.18;8.43;;;;;;;;;;4929920;29;20086;-61
2021/12/11 03:53:38;;;;;;;14.35;7.95;;;;;;;;;;4932544;29;20039;-60
2021/12/11 03:56:06;;;;;;;15.57;7.82;;;;;;;;;;4933149;29;20063;-60
2021/12/11 03:58:32;;;;;;;12.82;7.15;;;;;;;;;;4931127;29;20075;-60
2021/12/11 04:01:01;;;;;;;11.32;7.20;;;;;;;;;;4931832;29;20043;-60
2021/12/11 04:03:28;;;;;;;11.70;6.70;;;;;;;;;;4931038;29;20040;-60
2021/12/11 04:05:55;;;;;;;11.60;7.00;;;;;;;;;;4932818;29;20051;-60
2021/12/11 04:08:23;;;;;;;10.70;6.75;;;;;;;;;;4930514;29;20558;-61
2021/12/11 04:10:50;;;;;;;8.98;6.25;;;;;;;;;;4933315;29;20048;-59
2021/12/11 04:13:16;;;;;;;10.82;6.47;;;;;;;;;;4932150;29;20043;-59
2021/12/11 04:15:45;;;;;;;10.00;6.60;;;;;;;;;;4933509;29;20075;-60
2021/12/11 04:18:12;;;;;;;10.55;6.63;;;;;;;;;;4931339;29;20502;-61
2021/12/11 04:20:40;;;;;;;9.48;6.70;;;;;;;;;;4932117;29;20581;-60
2021/12/11 04:23:07;;;;;;;13.98;7.15;;;;;;;;;;4932339;29;20387;-60
2021/12/11 04:25:33;;;;;;;10.15;6.45;;;;;;;;;;4932455;29;20391;-60
2021/12/11 04:28:00;;;;;;;13.05;7.63;;;;;;;;;;4931007;29;20056;-60
2021/12/11 04:30:27;;;;;;;12.60;7.68;;;;;;;;;;4931319;29;20094;-60
2021/12/11 04:32:54;;;;;;;10.35;7.05;;;;;;;;;;4929215;29;20036;-61
2021/12/11 04:35:21;;;;;;;11.95;7.82;;;;;;;;;;4931533;29;20035;-60
2021/12/11 04:37:48;;;;;;;14.18;7.82;;;;;;;;;;4932537;29;20054;-59
2021/12/11 04:40:19;;;;;;;12.80;7.90;;;;;;;;;;4926515;29;20631;-60
2021/12/11 04:45:25;;;;;;;11.15;7.43;;;;;;;;;;4929916;29;20063;-60
2021/12/11 04:47:54;;;;;;;12.90;7.72;;;;;;;;;;4921797;29;20375;-59
2021/12/11 04:50:29;;;;;;;11.80;7.35;;;;;;;;;;4930654;29;20094;-60
2021/12/11 04:52:58;;;;;;;11.77;7.18;;;;;;;;;;4927061;29;20040;-60
2021/12/11 05:03:47;;;;;;;14.63;8.90;;;;;;;;;;4931147;29;20054;-61
2021/12/11 05:11:40;;;;;;;14.73;9.32;;;;;;;;;;4930702;29;20478;-60
2021/12/11 05:14:08;;;;;;;16.90;10.20;;;;;;;;;;4932159;29;20043;-60
2021/12/11 05:16:34;;;;;;;18.35;9.77;;;;;;;;;;4932283;29;20067;-60
2021/12/11 05:19:00;;;;;;;17.92;9.50;;;;;;;;;;4931536;29;20052;-61
2021/12/11 05:21:26;;;;;;;18.00;9.95;;;;;;;;;;4931743;29;20071;-60
2021/12/11 05:23:52;;;;;;;15.82;9.10;;;;;;;;;;4931113;29;20043;-61
2021/12/11 05:26:19;;;;;;;19.83;10.13;;;;;;;;;;4932780;29;20035;-59
2021/12/11 05:28:45;;;;;;;19.65;10.13;;;;;;;;;;4931239;29;20056;-61
2021/12/11 05:31:11;;;;;;;15.70;9.07;;;;;;;;;;4932507;29;20055;-59
2021/12/11 05:33:37;;;;;;;17.25;9.57;;;;;;;;;;4931395;29;20036;-60
2021/12/11 05:36:06;;;;;;;12.52;8.75;;;;;;;;;;4931683;29;20042;-59
2021/12/11 05:38:33;;;;;;;17.10;8.80;;;;;;;;;;4932011;28;20050;-60
2021/12/11 05:41:02;;;;;;;15.98;9.30;;;;;;;;;;4932860;29;20048;-60
2021/12/11 05:43:28;;;;;;;16.48;9.35;;;;;;;;;;4931163;29;20047;-60
2021/12/11 05:45:54;;;;;;;16.15;9.65;;;;;;;;;;4930709;29;20058;-59
2021/12/11 05:48:20;;;;;;;14.90;8.98;;;;;;;;;;4931346;29;20473;-60
2021/12/11 05:50:55;;;;;;;18.42;9.30;;;;;;;;;;4932271;29;20043;-60
2021/12/11 05:53:22;;;;;;;14.75;9.35;;;;;;;;;;4929370;29;20087;-60
2021/12/11 05:55:49;;;;;;;14.15;8.57;;;;;;;;;;4930581;29;20094;-60
2021/12/11 05:58:24;;;;;;;15.50;8.95;;;;;;;;;;4930468;29;20508;-60
2021/12/11 06:00:52;;;;;;;19.90;9.18;;;;;;;;;;4931765;29;20047;-60
2021/12/11 06:03:18;;;;;;;17.92;9.68;;;;;;;;;;4931650;29;20039;-60
2021/12/11 06:05:45;;;;;;;16.42;9.35;;;;;;;;;;4931980;29;20111;-60
2021/12/11 06:08:12;;;;;;;15.55;9.60;;;;;;;;;;4931542;29;20035;-60
2021/12/11 06:10:40;;;;;;;15.52;10.18;;;;;;;;;;4935083;29;20052;-59
2021/12/11 06:13:07;;;;;;;15.68;9.90;;;;;;;;;;4934771;29;20119;-60
2021/12/11 06:15:33;;;;;;;18.58;9.95;;;;;;;;;;4934721;29;20039;-59
2021/12/11 06:17:59;;;;;;;15.45;9.43;;;;;;;;;;4934717;29;21147;-60
2021/12/11 06:20:27;;;;;;;17.23;9.88;;;;;;;;;;4934355;29;20122;-60
2021/12/11 06:22:53;;;;;;;16.05;9.98;;;;;;;;;;4934328;29;20047;-60
2021/12/11 06:25:25;;;;;;;19.08;10.23;;;;;;;;;;4934112;29;20137;-59
2021/12/11 06:27:52;;;;;;;14.60;9.43;;;;;;;;;;4935362;29;20095;-60
2021/12/11 06:30:18;;;;;;;18.20;10.05;;;;;;;;;;4929206;29;20223;-59
2021/12/11 06:32:46;;;;;;;19.40;10.55;;;;;;;;;;4934997;29;20046;-60
2021/12/11 06:35:14;;;;;;;20.38;10.20;;;;;;;;;;4934158;29;20039;-60
2021/12/11 06:37:40;;;;;;;14.43;9.15;;;;;;;;;;4928669;29;20197;-59
2021/12/11 06:40:07;;;;;;;17.92;10.95;;;;;;;;;;4925871;29;20541;-60
2021/12/11 06:42:33;;;;;;;18.02;10.65;;;;;;;;;;4933315;29;20040;-61
2021/12/11 06:44:59;;;;;;;17.55;10.25;;;;;;;;;;4927514;29;20058;-60
2021/12/11 06:47:25;;;;;;;18.05;10.93;;;;;;;;;;4930170;29;20043;-59
2021/12/11 06:49:51;;;;;;;18.83;10.43;;;;;;;;;;4932579;29;20047;-60
2021/12/11 06:52:19;;;;;;;16.95;10.05;;;;;;;;;;4933827;29;20071;-60
2021/12/11 06:54:45;;;;;;;17.15;10.40;;;;;;;;;;4932993;29;20151;-60
2021/12/11 06:57:11;;;;;;;17.58;10.07;;;;;;;;;;4933994;29;20050;-61
2021/12/11 06:59:38;;;;;;;17.58;10.10;;;;;;;;;;4932606;29;21315;-60
2021/12/11 07:02:04;;;;;;;22.13;11.73;;;;;;;;;;4930824;29;20047;-59
2021/12/11 07:04:31;;;;;;;18.80;11.30;;;;;;;;;;4933287;29;20031;-60
2021/12/11 07:06:57;;;;;;;21.33;11.57;;;;;;;;;;4932566;29;20503;-60
2021/12/11 07:09:24;;;;;;;22.17;12.18;;;;;;;;;;4933914;29;20047;-60
2021/12/11 07:11:52;;;;;;;20.65;11.52;;;;;;;;;;4932461;29;20066;-61
2021/12/11 07:14:19;;;;;;;22.23;12.07;;;;;;;;;;4933543;29;20376;-60
2021/12/11 07:16:45;;;;;;;21.15;12.80;;;;;;;;;;4931608;29;20095;-60
2021/12/11 07:19:12;;;;;;;20.13;12.43;;;;;;;;;;4932518;29;20082;-60
2021/12/11 07:21:38;;;;;;;22.90;12.02;;;;;;;;;;4933153;29;20059;-61
2021/12/11 07:24:07;;;;;;;21.55;12.02;;;;;;;;;;4933024;29;20495;-61
2021/12/11 07:26:34;;;;;;;18.38;11.73;;;;;;;;;;4933736;29;20079;-60
2021/12/11 07:29:03;;;;;;;18.38;11.57;;;;;;;;;;4927957;29;20035;-62
2021/12/11 07:31:29;;;;;;;20.75;11.57;;;;;;;;;;4928943;29;20079;-62
2021/12/11 07:33:56;;;;;;;19.40;11.60;;;;;;;;;;4933877;29;20088;-61
2021/12/11 07:36:22;;;;;;;19.05;11.93;;;;;;;;;;4932091;29;20047;-61
2021/12/11 07:38:49;;;;;;;21.63;12.48;;;;;;;;;;4933324;29;20137;-60
2021/12/11 07:41:16;;;;;;;19.20;12.18;;;;;;;;;;4931243;29;20048;-60
2021/12/11 07:43:43;;;;;;;22.40;12.05;;;;;;;;;;4930985;29;20047;-60
2021/12/11 07:46:13;;;;;;;17.88;11.68;;;;;;;;;;4928941;29;20044;-61
2021/12/11 07:48:39;;;;;;;21.67;12.23;;;;;;;;;;4933899;29;20418;-60
2021/12/11 07:51:07;;;;;;;19.83;11.70;;;;;;;;;;4930966;29;20044;-61
2021/12/11 07:53:33;;;;;;;20.08;11.15;;;;;;;;;;4933008;29;20098;-60
2021/12/11 07:56:00;;;;;;;17.77;11.40;;;;;;;;;;4932310;29;20110;-60
2021/12/11 07:58:26;;;;;;;17.02;10.70;;;;;;;;;;4933608;29;20463;-61
2021/12/11 08:00:52;;;;;;;19.90;10.43;;;;;;;;;;4933151;29;20036;-62
2021/12/11 08:03:19;;;;;;;21.92;11.52;;;;;;;;;;4930361;29;20039;-61
2021/12/11 08:05:47;;;;;;;17.67;11.05;;;;;;;;;;4933781;29;20145;-60
2021/12/11 08:08:13;;;;;;;18.92;11.65;;;;;;;;;;4933420;29;20035;-60
2021/12/11 08:10:41;;;;;;;16.52;10.75;;;;;;;;;;4933749;29;20055;-60
2021/12/11 08:13:07;;;;;;;18.33;11.52;;;;;;;;;;4929973;29;20119;-61
2021/12/11 08:15:34;;;;;;;20.27;11.15;;;;;;;;;;4933599;29;20066;-63
2021/12/11 08:18:00;;;;;;;18.80;11.25;;;;;;;;;;4933543;29;20039;-61
2021/12/11 08:20:28;;;;;;;20.95;11.38;;;;;;;;;;4932812;29;20483;-62
2021/12/11 08:22:55;;;;;;;19.65;11.93;;;;;;;;;;4934094;29;20051;-61
2021/12/11 08:25:22;;;;;;;17.50;10.95;;;;;;;;;;4932349;29;20035;-62
2021/12/11 08:27:48;;;;;;;22.83;12.63;;;;;;;;;;4933718;29;20123;-61
2021/12/11 08:30:15;;;;;;;16.95;11.10;;;;;;;;;;4933150;29;20068;-60
2021/12/11 08:32:41;;;;;;;20.10;12.10;;;;;;;;;;4933594;29;20040;-61
2021/12/11 08:35:10;;;;;;;18.77;11.30;;;;;;;;;;4934020;29;20127;-60
2021/12/11 08:37:36;;;;;;;21.48;11.75;;;;;;;;;;4933624;29;20171;-61
2021/12/11 08:40:04;;;;;;;21.08;12.48;;;;;;;;;;4932746;29;20028;-62
2021/12/11 08:42:30;;;;;;;20.77;12.23;;;;;;;;;;4933524;29;20505;-61
2021/12/11 08:45:06;;;;;;;19.98;12.43;;;;;;;;;;4933680;29;20098;-62
2021/12/11 08:47:36;;;;;;;20.10;12.25;;;;;;;;;;4933511;29;20047;-61
2021/12/11 08:50:03;;;;;;;23.45;12.60;;;;;;;;;;4932961;29;20036;-61
2021/12/11 08:52:35;;;;;;;23.83;12.98;;;;;;;;;;4933340;29;20048;-61
2021/12/11 08:55:03;;;;;;;19.42;12.15;;;;;;;;;;4933661;29;20119;-61
2021/12/11 08:57:32;;;;;;;21.10;12.35;;;;;;;;;;4933428;29;20183;-61
2021/12/11 09:00:00;;;;;;;22.35;13.00;;;;;;;;;;4932359;29;20051;-61
2021/12/11 09:02:28;;;;;;;20.00;12.00;;;;;;;;;;4933363;29;20071;-62
2021/12/11 09:05:05;;;;;;;19.33;11.50;;;;;;;;;;4933544;29;20142;-61
2021/12/11 09:07:36;;;;;;;19.95;12.20;;;;;;;;;;4933451;29;20486;-61
2021/12/11 09:10:15;;;;;;;18.00;11.43;;;;;;;;;;4932235;29;20130;-61
2021/12/11 09:12:43;;;;;;;21.63;12.95;;;;;;;;;;4933007;29;20039;-60
2021/12/11 09:15:09;;;;;;;19.08;12.30;;;;;;;;;;4933259;29;20047;-61
2021/12/11 09:17:38;;;;;;;20.30;12.88;;;;;;;;;;4932920;29;20046;-61
2021/12/11 09:20:09;;;;;;;21.95;13.23;;;;;;;;;;4933779;29;20067;-61
2021/12/11 09:22:41;;;;;;;23.20;14.03;;;;;;;;;;4932832;29;20040;-60
2021/12/11 09:25:19;;;;;;;20.20;12.43;;;;;;;;;;4933502;29;20095;-62
2021/12/11 09:27:48;;;;;;;22.67;13.63;;;;;;;;;;4933149;29;20098;-61
2021/12/11 09:30:20;;;;;;;20.70;13.68;;;;;;;;;;4933197;29;20577;-61
2021/12/11 09:32:51;;;;;;;25.58;12.68;;;;;;;;;;4932997;29;21992;-60
2021/12/11 09:35:26;;;;;;;19.90;13.20;;;;;;;;;;4933086;29;20118;-62
2021/12/11 09:37:54;;;;;;;24.75;15.20;;;;;;;;;;4932891;29;20367;-60
2021/12/11 09:40:23;;;;;;;21.05;14.95;;;;;;;;;;4934615;29;20035;-62
2021/12/11 09:42:49;;;;;;;24.65;15.30;;;;;;;;;;4936494;29;20044;-61
2021/12/11 09:45:18;;;;;;;20.85;13.63;;;;;;;;;;4936850;29;20051;-60
2021/12/11 09:47:50;;;;;;;23.90;13.68;;;;;;;;;;4936320;29;20039;-61
2021/12/11 09:50:19;;;;;;;24.33;14.35;;;;;;;;;;4936785;29;20051;-62
2021/12/11 09:52:46;;;;;;;23.77;15.70;;;;;;;;;;4936461;29;20134;-62
2021/12/11 09:55:19;;;;;;;21.35;14.13;;;;;;;;;;4936574;29;20051;-61
2021/12/11 09:57:47;;;;;;;22.17;13.90;;;;;;;;;;4936306;29;20091;-61
2021/12/11 10:00:16;;;;;;;23.55;15.13;;;;;;;;;;4936335;29;20042;-61
2021/12/11 10:02:44;;;;;;;27.55;16.00;;;;;;;;;;4936278;29;20043;-61
2021/12/11 10:05:28;;;;;;;28.27;15.93;;;;;;;;;;4936577;29;20047;-61
2021/12/11 10:08:12;;;;;;;21.48;14.70;;;;;;;;;;4936216;29;20047;-61
2021/12/11 10:10:39;;;;;;;24.05;15.25;;;;;;;;;;4936359;29;20052;-61
2021/12/11 10:13:05;;;;;;;25.15;15.23;;;;;;;;;;4936362;29;20036;-61
2021/12/11 10:15:34;;;;;;;30.30;17.42;;;;;;;;;;4936389;29;20039;-63
2021/12/11 10:18:13;;;;;;;29.88;18.60;;;;;;;;;;4935908;29;20398;-62
2021/12/11 10:20:42;;;;;;;31.88;19.33;;;;;;;;;;4935936;29;20059;-61
2021/12/11 10:23:10;;;;;;;34.75;22.02;;;;;;;;;;4935957;29;20044;-62
2021/12/11 10:25:37;;;;;;;34.35;22.23;;;;;;;;;;4936191;29;20044;-61
2021/12/11 10:28:06;;;;;;;40.03;24.38;;;;;;;;;;4935876;29;20043;-62
2021/12/11 10:30:34;;;;;;;39.40;24.77;;;;;;;;;;4935833;29;20044;-61
2021/12/11 10:33:01;;;;;;;36.25;23.23;;;;;;;;;;4935799;29;20543;-61
2021/12/11 10:35:31;;;;;;;43.15;24.80;;;;;;;;;;4935909;29;20036;-62
2021/12/11 10:37:58;;;;;;;37.85;23.25;;;;;;;;;;4934286;29;20403;-60
2021/12/11 10:40:31;;;;;;;38.60;23.27;;;;;;;;;;4935930;29;20398;-61
2021/12/11 10:43:02;;;;;;;36.58;23.17;;;;;;;;;;4934386;29;20040;-62
2021/12/11 10:45:29;;;;;;;36.72;22.63;;;;;;;;;;4935601;29;20046;-61
2021/12/11 10:47:57;;;;;;;34.78;21.85;;;;;;;;;;4935381;29;20039;-61
2021/12/11 10:50:33;;;;;;;34.60;22.15;;;;;;;;;;4935395;29;20098;-61
2021/12/11 10:52:59;;;;;;;36.17;21.58;;;;;;;;;;4934661;29;20525;-61
2021/12/11 10:55:28;;;;;;;34.78;21.38;;;;;;;;;;4935470;29;20062;-61
2021/12/11 10:57:55;;;;;;;29.52;18.65;;;;;;;;;;4935310;29;20487;-60
2021/12/11 11:00:25;;;;;;;28.60;18.80;;;;;;;;;;4935339;29;20060;-62
2021/12/11 11:02:51;;;;;;;28.58;18.23;;;;;;;;;;4935014;29;20059;-61
2021/12/11 11:05:21;;;;;;;28.92;17.50;;;;;;;;;;4935354;29;20491;-62
2021/12/11 11:07:47;;;;;;;27.83;18.65;;;;;;;;;;4935232;29;20044;-61
2021/12/11 11:10:18;;;;;;;28.55;19.65;;;;;;;;;;4935043;29;20040;-62
2021/12/11 11:12:44;;;;;;;24.80;15.93;;;;;;;;;;4935259;29;20047;-63
2021/12/11 11:15:12;;;;;;;27.02;15.88;;;;;;;;;;4934966;29;20071;-61
2021/12/11 11:17:38;;;;;;;24.55;15.30;;;;;;;;;;4935463;29;20090;-62
2021/12/11 11:20:10;;;;;;;26.15;16.02;;;;;;;;;;4934947;29;20044;-62
2021/12/11 11:22:38;;;;;;;21.05;15.25;;;;;;;;;;4935210;29;20080;-62
2021/12/11 11:25:08;;;;;;;22.55;15.38;;;;;;;;;;4934657;29;20119;-63
2021/12/11 11:27:34;;;;;;;22.98;15.75;;;;;;;;;;4934834;29;20035;-61
2021/12/11 11:30:00;;;;;;;21.27;15.25;;;;;;;;;;4934406;29;20050;-62
2021/12/11 11:32:33;;;;;;;21.23;15.43;;;;;;;;;;4934828;29;20044;-61
2021/12/11 11:35:04;;;;;;;23.27;15.52;;;;;;;;;;4934500;29;20106;-61
2021/12/11 11:37:32;;;;;;;27.13;16.70;;;;;;;;;;4934722;29;20126;-62
2021/12/11 11:39:58;;;;;;;26.25;15.95;;;;;;;;;;4934602;29;20052;-60
2021/12/11 11:42:24;;;;;;;26.00;16.17;;;;;;;;;;4934393;29;20450;-61
2021/12/11 11:44:50;;;;;;;26.48;15.88;;;;;;;;;;4934757;29;20455;-61
2021/12/11 11:47:18;;;;;;;29.30;17.00;;;;;;;;;;4934431;29;20075;-62
2021/12/11 11:49:44;;;;;;;29.10;16.77;;;;;;;;;;4934633;29;20449;-60
2021/12/11 11:52:15;;;;;;;24.58;16.65;;;;;;;;;;4934442;29;20044;-63
2021/12/11 11:54:43;;;;;;;28.55;17.30;;;;;;;;;;4928611;29;20399;-62
2021/12/11 11:57:11;;;;;;;26.27;16.52;;;;;;;;;;4934439;29;20043;-62
2021/12/11 11:59:39;;;;;;;27.77;15.93;;;;;;;;;;4934434;29;20063;-60
2021/12/11 12:02:08;;;;;;;22.77;15.48;;;;;;;;;;4934262;29;20082;-62
2021/12/11 12:04:34;;;;;;;26.35;15.60;;;;;;;;;;4934371;29;20051;-63
2021/12/11 12:07:02;;;;;;;22.48;14.95;;;;;;;;;;4934649;29;20043;-63
2021/12/11 12:09:30;;;;;;;28.60;15.43;;;;;;;;;;4933737;29;20058;-61
2021/12/11 12:11:58;;;;;;;25.70;15.52;;;;;;;;;;4934191;29;20449;-61
2021/12/11 12:14:26;;;;;;;29.88;15.85;;;;;;;;;;4934008;29;20039;-60
2021/12/11 12:16:52;;;;;;;28.35;17.42;;;;;;;;;;4927843;29;20039;-62
2021/12/11 12:19:20;;;;;;;24.25;14.65;;;;;;;;;;4932882;29;20039;-62
2021/12/11 12:21:48;;;;;;;26.95;16.55;;;;;;;;;;4934061;29;20047;-62
2021/12/11 12:24:17;;;;;;;27.23;16.05;;;;;;;;;;4934171;29;20043;-62
2021/12/11 12:26:43;;;;;;;24.73;15.45;;;;;;;;;;4933777;29;20582;-63
2021/12/11 12:29:13;;;;;;;27.27;16.13;;;9.40;99.90;;;;;;4934024;29;20048;-63
2021/12/11 12:31:41;;;;;;;27.83;16.95;;;;;;;;;;4933584;29;20043;-62
2021/12/11 12:34:09;;;;;;;27.77;17.05;;;;;;;;;;4933817;29;20550;-61
2021/12/11 12:36:35;;;;;;;26.73;16.67;;;9.80;99.90;;;;;;4933259;29;20096;-62
2021/12/11 12:39:04;;;;;;;27.58;16.67;;;;;;;;;;4933769;29;20032;-62
2021/12/11 12:41:39;;;;;;;26.85;16.50;;;10.60;99.90;;;;;;4933603;29;20059;-62
2021/12/11 12:44:17;;;;;;;24.77;16.17;;;12.10;99.90;;;;;;4933749;29;20228;-61
2021/12/11 12:46:43;;;;;;;26.92;15.18;;;;;;;;;;4933469;29;20569;-62
2021/12/11 12:49:09;;;;;;;23.58;14.88;;;;;;;;;;4933493;29;20051;-64
2021/12/11 12:51:36;;;;;;;22.27;14.65;;;14.70;99.90;;;;;;4933339;29;20039;-62
2021/12/11 12:54:04;;;;;;;23.35;14.60;;;;;;;;;;4933531;29;20122;-63
2021/12/11 12:56:37;;;;;;;22.15;14.65;;;14.70;99.90;;;;;;4933341;29;20059;-62
2021/12/11 12:59:14;;;;;;;22.77;14.43;;;13.60;99.90;;;;;;4933645;29;20079;-61
2021/12/11 13:01:47;;;;;;;23.17;13.93;;;13.30;99.90;;;;;;4933162;29;20052;-59
2021/12/11 13:04:16;;;;;;;27.80;15.07;;;12.30;99.90;;;;;;4933529;29;20046;-60
2021/12/11 13:06:54;;;;;;;26.52;14.85;;;11.60;99.90;;;;;;4933040;29;20042;-59
2021/12/11 13:09:29;;;;;;;22.35;13.70;;;;;;;;;;4933555;29;20118;-60
2021/12/11 13:12:00;;;;;;;22.55;14.52;;;;;;;;;;4933116;29;20127;-60
2021/12/11 13:14:27;;;;;;;24.83;14.95;;;;;;;;;;4933501;29;20040;-60
2021/12/11 13:16:55;;;;;;;22.33;14.20;;;;;;;;;;4937161;29;20409;-60
2021/12/11 13:19:26;;;;;;;25.23;14.80;;;10.10;99.90;;;;;;4936178;29;20040;-60
2021/12/11 13:21:56;;;;;;;24.10;15.45;;;10.00;99.90;;;;;;4937472;29;20475;-59
2021/12/11 13:24:22;;;;;;;22.27;15.50;;;;;;;;;;4937041;29;20054;-60
2021/12/11 13:26:51;;;;;;;22.23;14.65;;;;;;;;;;4937095;29;20048;-59
2021/12/11 13:29:19;;;;;;;22.25;14.52;;;;;;;;;;4937152;29;20049;-60
2021/12/11 13:31:48;;;;;;;26.58;15.68;;;;;;;;;;4936654;29;20579;-61
2021/12/11 13:34:14;;;;;;;26.67;15.35;;;;;;;;;;4937062;29;20079;-61
2021/12/11 13:36:41;;;;;;;26.85;15.88;;;;;;;;;;4936664;29;20074;-59
2021/12/11 13:39:08;;;;;;;26.42;16.25;;;;;;;;;;4936762;29;20475;-59
2021/12/11 13:41:39;;;;;;;27.30;16.35;;;;;;;;;;4937069;29;20089;-60
2021/12/11 13:44:07;;;;;;;26.50;16.27;;;;;;;;;;4936871;29;20483;-61
2021/12/11 13:46:33;;;;;;;25.85;16.50;;;;;;;;;;4936823;29;20446;-61
2021/12/11 13:48:59;;;;;;;24.05;15.50;;;;;;;;;;4936477;29;20043;-59
2021/12/11 13:51:29;;;;;;;27.20;16.08;;;;;;;;;;4936582;29;20541;-60
2021/12/11 13:53:57;;;;;;;23.63;15.13;;;;;;;;;;4936351;29;20442;-59
2021/12/11 13:56:25;;;;;;;27.00;15.88;;;;;;;;;;4936504;29;20103;-59
2021/12/11 13:58:53;;;;;;;25.05;16.23;;;;;;;;;;4936330;29;20134;-59
2021/12/11 14:01:23;;;;;;;25.23;16.63;;;;;;;;;;4936794;29;20171;-59
2021/12/11 14:03:50;;;;;;;28.95;16.73;;;;;;;;;;4936484;29;20056;-59
2021/12/11 14:06:18;;;;;;;23.83;16.52;;;;;;;;;;4936176;29;20051;-62
2021/12/11 14:08:46;;;;;;;25.20;17.10;;;;;;;;;;4936427;29;20552;-61
2021/12/11 14:11:14;;;;;;;26.48;16.00;;;;;;;;;;4936492;29;20122;-61
2021/12/11 14:13:40;;;;;;;26.23;15.48;;;;;;;;;;4934873;29;20063;-59
2021/12/11 14:16:08;;;;;;;31.23;16.35;;;;;;;;;;4936112;29;20122;-59
2021/12/11 14:18:36;;;;;;;26.58;15.20;;;;;;;;;;4936156;29;20036;-60
2021/12/11 14:21:02;;;;;;;28.80;17.08;;;;;;;;;;4936001;29;20055;-61
2021/12/11 14:23:32;;;;;;;21.50;15.00;;;;;;;;;;4936281;29;20125;-59
2021/12/11 14:25:59;;;;;;;24.58;15.93;;;;;;;;;;4935281;29;20043;-60
2021/12/11 14:28:26;;;;;;;22.10;15.52;;;;;;;;;;4935366;29;20032;-59
2021/12/11 14:30:58;;;;;;;24.52;15.80;;;;;;;;;;4935875;29;20048;-59
2021/12/11 14:33:24;;;;;;;26.25;16.05;;;;;;;;;;4936386;29;20475;-60
2021/12/11 14:35:52;;;;;;;26.48;16.15;;;;;;;;;;4935857;29;20079;-60
2021/12/11 14:38:18;;;;;;;65.00;16.67;;;;;;;;;;4936064;29;20486;-60
2021/12/11 14:40:47;;;;;;;32.15;16.65;;;;;;;;;;4935798;29;20051;-61
2021/12/11 14:43:14;;;;;;;44.67;16.60;;;;;;;;;;4935414;29;20402;-61